Arlington, Virginia
Current Conditions -  °F | °C
As of 5:52 PM on Saturday 25 Oct 2014 (Local Time) from KDCA Reporting Station
Few Clouds Few Clouds  
Wind Chill: 69°   Ceiling: Unl
Heat Index: 69°   Visibility: 10mi
Dew Point: 39°   Wind: 13mph
Humidity: 33%   Direction: 190°S
Pressure: 29.75"   Gusts: NA
Location:  38.89°N, 77.09°W
Report Text: KDCA 252152Z 19011KT 10SM FEW100 21/04 A2975 RMK AO2 SLP075 T02060039
Loading
Personal Weather Stations






























Interactive Weather Map
Tropical Storm Tracking
New forecast layout! Learn more

10-Day Weather Forecast

Advertisements
Track Severe Weather on mobile